Time;durP1;ratioP1;P1;durP2;ratioP2;P2;SDS_P1;SDS_P2;PMS_P1;PMS_P2;Temp;Humidity;BMP_temperature;BMP_pressure;BME280_temperature;BME280_humidity;BME280_pressure;Samples;Min_cycle;Max_cycle;Signal;HPM_P1;HPM_P2
2021/10/19 00:01:18;;;;;;;1.33;0.60;;;;;;;5.41;75.54;98962.41;5048429;28;20516;-66
2021/10/19 00:03:44;;;;;;;1.00;0.70;;;;;;;5.47;75.15;98966.56;5041795;28;20041;-65
2021/10/19 00:06:10;;;;;;;1.77;0.90;;;;;;;5.45;75.46;98965.72;5021337;28;20029;-65
2021/10/19 00:08:36;;;;;;;2.38;1.00;;;;;;;5.44;74.96;98970.03;5010546;28;20091;-67
2021/10/19 00:11:02;;;;;;;3.08;1.10;;;;;;;5.41;74.93;98953.81;5012409;28;20140;-66
2021/10/19 00:13:28;;;;;;;2.97;0.93;;;;;;;5.55;75.09;98964.63;5029317;28;20041;-66
2021/10/19 00:15:53;;;;;;;1.90;0.90;;;;;;;5.52;74.95;98969.88;5027923;28;20048;-66
2021/10/19 00:18:19;;;;;;;4.30;1.40;;;;;;;5.49;75.08;98969.97;5011908;28;20038;-67
2021/10/19 00:20:45;;;;;;;2.20;1.00;;;;;;;5.55;75.24;98967.19;5013341;28;20041;-66
2021/10/19 00:23:10;;;;;;;2.70;1.30;;;;;;;5.59;74.89;98979.16;5030032;28;20045;-67
2021/10/19 00:25:36;;;;;;;1.83;1.10;;;;;;;5.60;74.28;98972.25;5028170;28;20041;-66
2021/10/19 00:28:02;;;;;;;3.85;1.00;;;;;;;5.53;74.62;98969.84;5027928;28;20508;-65
2021/10/19 00:30:28;;;;;;;1.98;0.95;;;;;;;5.46;74.82;98982.91;5015148;28;20264;-68
2021/10/19 00:32:54;;;;;;;2.40;0.98;;;;;;;5.47;74.99;98972.56;5023729;28;20056;-68
2021/10/19 00:35:19;;;;;;;1.88;0.98;;;;;;;5.32;75.07;98967.78;5022333;28;20129;-65
2021/10/19 00:37:45;;;;;;;2.22;1.20;;;;;;;5.44;75.39;98982.13;5010130;28;20421;-66
2021/10/19 00:40:11;;;;;;;4.57;1.00;;;;;;;5.56;75.27;98981.78;5011329;28;20631;-65
2021/10/19 00:42:37;;;;;;;2.97;1.00;;;;;;;5.62;75.03;98978.22;5036229;28;20052;-66
2021/10/19 00:45:05;;;;;;;2.03;0.95;;;;;;;5.66;74.26;98993.56;5044529;28;20056;-67
2021/10/19 00:47:31;;;;;;;3.92;1.38;;;;;;;5.73;74.12;98983.94;5026678;28;20136;-66
2021/10/19 00:49:56;;;;;;;2.50;1.00;;;;;;;5.84;74.09;98992.25;5040610;28;20179;-65
2021/10/19 00:52:22;;;;;;;2.15;0.90;;;;;;;5.79;74.05;98987.22;5023427;28;20096;-65
2021/10/19 00:54:48;;;;;;;0.98;0.68;;;;;;;5.69;73.44;98975.44;5025376;28;20048;-65
2021/10/19 00:57:14;;;;;;;1.88;0.98;;;;;;;5.73;73.62;98991.66;5039935;28;20056;-64
2021/10/19 00:59:45;;;;;;;3.65;1.40;;;;;;;5.69;74.06;98998.66;5033570;28;20600;-64
2021/10/19 01:02:12;;;;;;;1.15;0.80;;;;;;;5.69;73.86;98996.06;5044618;28;20056;-65
2021/10/19 01:04:39;;;;;;;1.15;0.80;;;;;;;5.69;73.70;98975.44;5036700;28;20554;-67
2021/10/19 01:07:06;;;;;;;1.98;0.93;;;;;;;5.79;73.68;98978.63;5053056;28;20110;-65
2021/10/19 01:09:32;;;;;;;1.48;0.80;;;;;;;5.93;73.38;99002.34;5033979;28;20057;-66
2021/10/19 01:11:57;;;;;;;2.15;0.95;;;;;;;5.99;73.66;98998.75;5034471;28;20037;-66
2021/10/19 01:14:23;;;;;;;1.98;1.02;;;;;;;6.02;73.10;99004.66;5042125;28;20124;-66
2021/10/19 01:16:48;;;;;;;2.53;0.70;;;;;;;6.08;72.97;99003.66;5031922;28;20118;-67
2021/10/19 01:19:22;;;;;;;1.55;0.88;;;;;;;6.09;72.88;99008.78;5045524;28;20098;-66
2021/10/19 01:21:58;;;;;;;1.25;0.85;;;;;;;6.13;72.87;99007.81;5049905;28;20139;-65
2021/10/19 01:24:24;;;;;;;2.30;0.93;;;;;;;6.05;72.80;99007.19;5049981;28;20152;-65
2021/10/19 01:26:50;;;;;;;1.10;0.73;;;;;;;6.03;72.99;99015.84;5040557;28;20132;-66
2021/10/19 01:29:16;;;;;;;1.55;0.70;;;;;;;6.03;73.12;99013.25;5016451;28;20155;-66
2021/10/19 01:31:50;;;;;;;1.60;0.98;;;;;;;6.04;73.43;99013.22;5035770;28;20041;-65
2021/10/19 01:34:16;;;;;;;1.00;0.73;;;;;;;5.96;73.02;99015.19;5034753;28;20195;-67
2021/10/19 01:36:42;;;;;;;2.90;0.80;;;;;;;5.94;73.40;99017.78;5051155;28;20123;-65
2021/10/19 01:39:08;;;;;;;2.22;1.00;;;;;;;5.92;72.98;99010.97;5032210;28;20064;-66
2021/10/19 01:41:34;;;;;;;0.90;0.50;;;;;;;5.99;72.58;99012.50;5028809;28;20064;-66
2021/10/19 01:44:00;;;;;;;0.80;0.60;;;;;;;6.00;72.47;99019.38;5034243;28;20522;-66
2021/10/19 01:46:26;;;;;;;0.90;0.70;;;;;;;6.01;72.67;99022.78;5036790;28;20127;-66
2021/10/19 01:48:52;;;;;;;1.77;0.70;;;;;;;6.05;72.19;99022.66;5025137;28;20500;-65
2021/10/19 01:51:18;;;;;;;0.88;0.70;;;;;;;6.11;71.50;99027.66;5029492;28;20065;-66
2021/10/19 01:53:44;;;;;;;0.80;0.50;;;;;;;6.15;71.76;99021.53;5031621;28;20045;-66
2021/10/19 01:56:10;;;;;;;1.95;1.00;;;;;;;6.23;70.69;99032.47;5032466;28;20528;-66
2021/10/19 01:58:37;;;;;;;2.83;1.02;;;;;;;6.27;70.61;99039.28;5033295;28;20064;-66
2021/10/19 02:01:03;;;;;;;1.10;0.75;;;;;;;6.26;69.94;99034.13;5034701;28;20055;-66
2021/10/19 02:03:29;;;;;;;1.88;0.80;;;;;;;6.19;70.64;99038.63;5050789;28;20060;-65
2021/10/19 02:05:54;;;;;;;1.00;0.70;;;;;;;6.20;70.46;99032.56;5050103;28;20044;-66
2021/10/19 02:08:20;;;;;;;1.75;1.05;;;;;;;6.26;70.14;99039.31;5044692;28;20045;-66
2021/10/19 02:10:46;;;;;;;1.95;0.80;;;;;;;6.31;69.63;99042.59;5037654;28;20037;-67
2021/10/19 02:13:13;;;;;;;1.70;0.80;;;;;;;6.28;70.30;99029.78;5028288;28;20037;-65
2021/10/19 02:15:39;;;;;;;1.85;1.10;;;;;;;6.34;70.05;99043.34;5033121;28;20041;-66
2021/10/19 02:18:06;;;;;;;2.10;0.70;;;;;;;6.33;69.91;99046.81;5031940;28;20536;-64
2021/10/19 02:20:32;;;;;;;3.65;1.33;;;;;;;6.34;69.22;99039.94;5032621;28;20045;-66
2021/10/19 02:22:59;;;;;;;2.17;0.70;;;;;;;6.31;68.29;99051.19;5043807;28;20543;-66
2021/10/19 02:25:24;;;;;;;3.63;0.73;;;;;;;6.18;68.48;99039.50;5030984;28;20041;-66
2021/10/19 02:27:50;;;;;;;1.42;0.73;;;;;;;6.20;68.66;99055.81;5024584;28;20146;-66
2021/10/19 02:30:16;;;;;;;0.90;0.70;;;;;;;6.18;68.85;99049.81;5021372;28;20044;-65
2021/10/19 02:32:43;;;;;;;1.67;0.80;;;;;;;6.19;68.82;99061.84;5035018;28;20460;-65
2021/10/19 02:35:11;;;;;;;2.88;0.95;;;;;;;6.18;68.57;99062.72;5044920;28;20037;-66
2021/10/19 02:37:37;;;;;;;1.75;0.80;;;;;;;6.22;68.25;99064.38;5038270;28;20044;-67
2021/10/19 02:40:04;;;;;;;0.65;0.60;;;;;;;6.26;68.82;99060.81;5031603;28;20119;-65
2021/10/19 02:42:30;;;;;;;3.50;0.68;;;;;;;6.10;68.79;99028.56;5049218;28;20560;-66
2021/10/19 02:44:56;;;;;;;1.60;0.80;;;;;;;6.29;68.54;99060.72;5048526;28;20136;-64
2021/10/19 02:47:21;;;;;;;0.93;0.60;;;;;;;6.12;68.72;99050.00;5035320;28;20125;-66
2021/10/19 02:49:47;;;;;;;1.27;0.75;;;;;;;6.16;68.98;99063.66;5032680;28;20045;-66
2021/10/19 02:52:13;;;;;;;0.95;0.65;;;;;;;6.09;69.05;99062.97;5020416;28;20547;-67
2021/10/19 02:54:38;;;;;;;1.30;0.80;;;;;;;6.06;69.31;99059.63;5033555;28;20045;-67
2021/10/19 02:57:04;;;;;;;2.92;0.90;;;;;;;5.87;69.06;99036.88;5032837;28;20034;-67
2021/10/19 02:59:30;;;;;;;1.95;0.73;;;;;;;6.04;68.85;99061.41;5030781;28;20088;-66
2021/10/19 03:01:56;;;;;;;2.08;0.80;;;;;;;6.08;69.38;99078.50;5027682;28;20044;-66
2021/10/19 03:04:21;;;;;;;1.95;1.27;;;;;;;6.10;69.07;99077.56;5044890;28;20613;-67
2021/10/19 03:06:47;;;;;;;0.52;0.52;;;;;;;6.09;68.27;99075.88;5049642;28;20041;-67
2021/10/19 03:09:13;;;;;;;3.05;0.70;;;;;;;6.11;68.46;99084.44;5024988;28;20033;-67
2021/10/19 03:11:38;;;;;;;1.50;0.88;;;;;;;6.17;68.24;99086.88;5028337;28;20045;-66
2021/10/19 03:14:04;;;;;;;1.27;0.70;;;;;;;6.18;67.32;99073.03;5036848;28;20471;-64
2021/10/19 03:16:30;;;;;;;0.77;0.63;;;;;;;6.10;66.37;99068.97;5026897;28;20033;-67
2021/10/19 03:18:55;;;;;;;0.50;0.45;;;;;;;6.22;65.56;99081.56;5045644;28;20041;-68
2021/10/19 03:21:21;;;;;;;1.30;0.63;;;;;;;6.25;65.54;99089.22;5046992;28;20036;-65
2021/10/19 03:23:47;;;;;;;0.93;0.65;;;;;;;6.29;65.34;99083.09;5043794;28;20521;-66
2021/10/19 03:26:16;;;;;;;2.80;0.80;;;;;;;6.30;65.14;99083.06;5016597;28;20080;-67
2021/10/19 03:28:43;;;;;;;3.78;1.05;;;;;;;6.35;64.90;99077.75;5031189;28;20417;-65
2021/10/19 03:31:09;;;;;;;1.25;0.80;;;;;;;6.32;65.36;99080.44;5040775;28;20045;-66
2021/10/19 03:33:34;;;;;;;4.35;1.10;;;;;;;6.36;64.69;99093.22;5038355;28;20049;-66
2021/10/19 03:36:01;;;;;;;1.00;0.57;;;;;;;6.34;65.63;99089.81;5039727;28;20080;-67
2021/10/19 03:38:26;;;;;;;1.58;0.70;;;;;;;6.36;65.54;99095.81;5030769;28;20073;-66
2021/10/19 03:40:52;;;;;;;1.98;1.33;;;;;;;6.33;65.38;99090.69;5031621;28;20048;-66
2021/10/19 03:43:18;;;;;;;1.83;0.80;;;;;;;6.33;65.39;99082.97;5046413;28;20048;-65
2021/10/19 03:45:44;;;;;;;2.05;1.20;;;;;;;6.37;65.25;99088.91;5049970;28;20044;-65
2021/10/19 03:48:09;;;;;;;1.67;0.90;;;;;;;6.39;65.36;99092.28;5039667;28;20060;-65
2021/10/19 03:50:35;;;;;;;4.55;0.80;;;;;;;6.35;65.37;99082.94;5030893;28;20441;-65
2021/10/19 03:53:01;;;;;;;1.52;0.90;;;;;;;6.37;65.73;99094.06;5023788;28;20041;-65
2021/10/19 03:55:26;;;;;;;2.50;0.82;;;;;;;6.39;65.35;99098.28;5033073;28;20176;-65
2021/10/19 03:57:52;;;;;;;3.80;1.00;;;;;;;6.40;65.27;99101.72;5046276;28;20045;-64
2021/10/19 04:00:18;;;;;;;4.13;0.85;;;;;;;6.37;64.81;99099.25;5029569;28;20588;-66
2021/10/19 04:02:44;;;;;;;3.03;0.90;;;;;;;6.37;64.71;99105.25;5028056;28;20176;-65
2021/10/19 04:05:09;;;;;;;0.80;0.73;;;;;;;6.25;64.58;99099.56;5021156;28;20049;-65
2021/10/19 04:07:35;;;;;;;0.68;0.57;;;;;;;6.07;64.23;99092.31;5035999;28;20136;-66
2021/10/19 04:10:05;;;;;;;2.88;0.80;;;;;;;6.12;64.34;99104.19;5022969;28;20045;-66
2021/10/19 04:12:31;;;;;;;3.92;1.02;;;;;;;5.99;64.66;99089.91;5029942;28;20390;-67
2021/10/19 04:14:57;;;;;;;2.78;0.82;;;;;;;5.97;64.86;99112.31;5031401;28;20083;-66
2021/10/19 04:17:23;;;;;;;1.10;0.70;;;;;;;5.75;65.61;99108.53;5029251;28;20037;-65
2021/10/19 04:19:48;;;;;;;1.45;1.08;;;;;;;5.58;65.96;99100.34;5035182;28;20126;-64
2021/10/19 04:22:14;;;;;;;1.50;1.00;;;;;;;5.68;66.70;99107.84;5049211;28;20049;-66
2021/10/19 04:24:40;;;;;;;2.40;1.40;;;;;;;5.74;66.48;99115.44;5041380;28;20044;-62
2021/10/19 04:27:05;;;;;;;7.47;1.50;;;;;;;5.83;66.85;99124.66;5033933;28;20059;-64
2021/10/19 04:29:31;;;;;;;2.97;0.80;;;;;;;5.87;66.99;99124.59;5032462;28;20140;-61
2021/10/19 04:31:57;;;;;;;1.85;1.20;;;;;;;5.87;66.54;99129.75;5028909;28;20160;-65
2021/10/19 04:34:23;;;;;;;2.63;0.95;;;;;;;5.79;67.12;99129.06;5031899;28;20513;-66
2021/10/19 04:36:49;;;;;;;2.70;1.30;;;;;;;5.69;67.38;99129.31;5028787;28;20069;-65
2021/10/19 04:39:15;;;;;;;1.92;1.23;;;;;;;5.69;68.21;99121.59;5027831;28;20128;-65
2021/10/19 04:41:44;;;;;;;2.05;1.17;;;;;;;5.68;68.08;99125.88;5027061;28;20045;-64
2021/10/19 04:44:11;;;;;;;1.43;1.13;;;;;;;5.67;68.64;99125.91;5029337;28;20045;-65
2021/10/19 04:46:40;;;;;;;1.35;0.95;;;;;;;5.63;68.55;99138.03;5024710;28;20505;-65
2021/10/19 04:49:06;;;;;;;4.03;1.58;;;;;;;5.66;68.20;99137.97;5028574;28;20344;-65
2021/10/19 04:51:33;;;;;;;1.55;1.00;;;;;;;5.67;68.61;99137.09;5028715;28;20057;-64
2021/10/19 04:53:58;;;;;;;2.88;1.00;;;;;;;5.55;68.67;99138.19;5028661;28;20064;-60
2021/10/19 04:56:24;;;;;;;3.22;1.30;;;;;;;5.64;68.70;99150.06;5038057;28;20114;-68
2021/10/19 04:58:50;;;;;;;1.50;0.95;;;;;;;5.55;68.38;99148.50;5023220;28;20042;-65
2021/10/19 05:01:16;;;;;;;1.40;0.93;;;;;;;5.50;68.91;99146.91;4999754;28;20402;-69
2021/10/19 05:03:46;;;;;;;2.08;1.10;;;;;;;5.52;69.08;99151.19;5041636;28;20037;-69
2021/10/19 05:06:13;;;;;;;1.88;1.45;;;;;;;5.49;68.82;99148.69;5013333;28;20045;-64
2021/10/19 05:08:38;;;;;;;3.92;1.40;;;;;;;5.49;68.65;99156.41;5011334;28;20529;-65
2021/10/19 05:11:04;;;;;;;2.05;1.15;;;;;;;5.37;68.59;99160.97;5040321;28;20107;-61
2021/10/19 05:13:30;;;;;;;2.03;1.05;;;;;;;5.21;69.48;99163.03;5012223;28;20046;-65
2021/10/19 05:15:55;;;;;;;5.13;1.30;;;;;;;5.31;69.23;99158.53;5017074;28;20050;-67
2021/10/19 05:18:21;;;;;;;2.42;1.40;;;;;;;5.40;69.19;99163.47;5028939;28;20084;-65
2021/10/19 05:20:47;;;;;;;1.38;0.82;;;;;;;5.44;68.53;99163.38;5028263;28;20045;-68
2021/10/19 05:23:13;;;;;;;2.05;0.93;;;;;;;5.48;68.71;99164.16;5027758;28;20096;-68
2021/10/19 05:25:38;;;;;;;1.85;0.98;;;;;;;5.48;68.33;99172.75;5016367;28;20052;-71
2021/10/19 05:28:04;;;;;;;7.38;2.22;;;;;;;5.48;67.82;99171.91;5029108;28;20132;-73
2021/10/19 05:30:30;;;;;;;1.45;1.20;;;;;;;5.54;68.43;99174.34;5048806;28;20044;-69
2021/10/19 05:32:56;;;;;;;1.25;0.90;;;;;;;5.63;67.81;99174.16;5049007;28;20428;-71
2021/10/19 05:35:21;;;;;;;3.13;1.25;;;;;;;5.61;67.73;99181.06;5043203;28;20491;-73
2021/10/19 05:37:47;;;;;;;2.75;1.33;;;;;;;5.63;68.17;99170.72;5028990;28;20037;-70
2021/10/19 05:40:13;;;;;;;1.80;1.20;;;;;;;5.74;68.45;99191.94;5028995;28;20039;-70
2021/10/19 05:42:39;;;;;;;2.20;1.02;;;;;;;5.71;68.27;99182.53;5030049;28;20041;-73
2021/10/19 05:45:05;;;;;;;9.30;1.40;;;;;;;5.67;68.33;99168.03;5032684;28;20122;-75
2021/10/19 05:47:31;;;;;;;2.10;1.30;;;;;;;5.95;68.17;99192.34;5029483;28;20045;-68
2021/10/19 05:49:57;;;;;;;1.10;1.00;;;;;;;5.81;67.35;99172.88;5032268;28;20052;-74
2021/10/19 05:52:22;;;;;;;1.42;1.10;;;;;;;6.04;67.28;99193.00;5033675;28;20072;-67
2021/10/19 05:54:48;;;;;;;1.63;1.30;;;;;;;6.17;67.08;99200.41;5038924;28;20128;-63
2021/10/19 05:57:14;;;;;;;2.75;1.20;;;;;;;6.23;66.72;99207.13;5038715;28;20623;-71
2021/10/19 05:59:40;;;;;;;15.02;1.55;;;;;;;6.15;66.49;99202.19;5031673;28;20045;-66
2021/10/19 06:02:06;;;;;;;2.38;1.05;;;;;;;6.06;66.51;99194.66;5032280;28;20045;-63
2021/10/19 06:04:31;;;;;;;5.63;1.58;;;;;;;6.09;66.07;99204.06;5031746;28;20045;-74
2021/10/19 06:06:59;;;;;;;4.30;1.30;;;;;;;6.13;66.37;99214.25;5032070;28;20064;-73
2021/10/19 06:09:26;;;;;;;3.45;1.33;;;;;;;6.21;66.47;99214.94;5041601;28;20049;-73
2021/10/19 06:11:53;;;;;;;3.22;1.40;;;;;;;6.28;65.64;99215.66;5032089;28;20060;-72
2021/10/19 06:14:19;;;;;;;2.25;1.05;;;;;;;6.30;65.46;99216.44;5031880;28;20547;-64
2021/10/19 06:16:45;;;;;;;4.10;1.17;;;;;;;6.14;66.12;99220.28;5032913;28;20044;-62
2021/10/19 06:19:12;;;;;;;3.53;1.27;;;;;;;6.08;66.19;99223.84;5031785;28;20091;-64
2021/10/19 06:21:39;;;;;;;4.60;1.30;;;;;;;6.07;65.99;99224.72;5035580;28;20048;-64
2021/10/19 06:24:04;;;;;;;2.20;1.00;;;;;;;6.00;66.51;99223.19;5036848;28;20056;-67
2021/10/19 06:26:35;;;;;;;1.20;0.90;;;;;;;5.95;67.13;99218.13;5030592;28;20041;-66
2021/10/19 06:29:02;;;;;;;1.38;0.88;;;;;;;5.96;67.49;99221.56;5031856;28;20099;-70
2021/10/19 06:31:28;;;;;;;1.10;0.90;;;;;;;5.97;66.97;99218.94;5029797;28;20069;-67
2021/10/19 06:33:53;;;;;;;6.72;1.13;;;;;;;6.17;67.35;99223.66;5019990;28;20073;-71
2021/10/19 06:36:19;;;;;;;1.85;1.30;;;;;;;6.43;66.36;99217.00;5026900;28;20038;-70
2021/10/19 06:38:45;;;;;;;2.47;1.38;;;;;;;6.64;65.95;99225.06;5009651;28;20045;-68
2021/10/19 06:41:11;;;;;;;4.05;1.27;;;;;;;6.64;65.59;99222.47;5010286;28;20065;-67
2021/10/19 06:43:36;;;;;;;2.58;1.20;;;;;;;6.54;65.02;99226.13;5015764;28;20493;-64
2021/10/19 06:46:03;;;;;;;6.45;1.30;;;;;;;6.49;65.04;99227.16;5044272;28;20053;-59
2021/10/19 06:48:29;;;;;;;5.38;1.20;;;;;;;6.53;64.87;99229.63;5026852;28;20072;-71
2021/10/19 06:50:55;;;;;;;3.33;1.15;;;;;;;6.44;64.77;99201.44;5019910;28;20081;-68
2021/10/19 06:53:20;;;;;;;3.97;1.40;;;;;;;6.58;64.57;99219.19;5045540;28;20040;-67
2021/10/19 06:55:46;;;;;;;1.23;0.98;;;;;;;6.67;64.33;99234.44;5048298;28;20041;-68
2021/10/19 06:58:12;;;;;;;3.13;1.00;;;;;;;6.68;63.95;99225.81;5050870;28;20068;-70
2021/10/19 07:00:38;;;;;;;2.22;1.48;;;;;;;6.76;63.47;99237.63;5050740;28;20548;-70
2021/10/19 07:03:04;;;;;;;4.47;1.88;;;;;;;6.74;63.89;99236.84;5049398;28;20033;-71
2021/10/19 07:05:29;;;;;;;2.70;1.10;;;;;;;6.70;63.72;99235.19;5033540;28;20547;-67
2021/10/19 07:07:55;;;;;;;1.83;1.27;;;;;;;6.71;63.66;99233.47;5043837;28;20984;-72
2021/10/19 07:10:21;;;;;;;1.38;0.80;;;;;;;6.39;63.82;99209.31;5030658;28;20041;-71
2021/10/19 07:12:47;;;;;;;1.25;1.05;;;;;;;6.46;63.96;99232.41;5025290;28;20120;-70
2021/10/19 07:15:14;;;;;;;12.10;1.30;;;;;;;6.48;63.90;99238.38;5042695;28;20050;-71
2021/10/19 07:17:41;;;;;;;7.45;1.23;;;;;;;6.56;64.15;99236.44;5025105;28;20095;-70
2021/10/19 07:20:08;;;;;;;5.03;1.20;;;;;;;6.63;63.68;99238.84;5031037;28;20575;-70
2021/10/19 07:22:34;;;;;;;1.50;0.95;;;;;;;6.60;64.30;99231.16;5046624;28;20049;-72
2021/10/19 07:25:01;;;;;;;2.88;1.10;;;;;;;6.64;64.18;99235.38;5026836;28;20046;-70
2021/10/19 07:27:27;;;;;;;0.70;0.60;;;;;;;6.69;63.44;99237.84;5010895;28;20042;-71
2021/10/19 07:29:53;;;;;;;1.30;0.85;;;;;;;6.77;62.94;99229.00;5009438;28;20041;-70
2021/10/19 07:32:19;;;;;;;2.80;1.13;;;;;;;7.02;62.18;99230.91;5009488;28;20115;-70
2021/10/19 07:34:44;;;;;;;1.38;0.75;;;;;;;7.13;61.89;99229.72;5010643;28;20057;-70
2021/10/19 07:37:10;;;;;;;2.85;1.20;;;;;;;7.19;61.81;99239.91;5009046;28;20140;-70
2021/10/19 07:39:36;;;;;;;6.13;1.42;;;;;;;7.20;61.36;99233.84;5009208;28;20048;-71
2021/10/19 07:42:02;;;;;;;5.20;0.90;;;;;;;7.27;61.14;99236.28;5017317;28;20044;-70
2021/10/19 07:44:28;;;;;;;1.23;0.82;;;;;;;6.97;60.44;99215.53;5030132;28;20061;-70
2021/10/19 07:46:55;;;;;;;1.50;0.82;;;;;;;7.10;60.56;99244.50;5029016;28;20590;-71
2021/10/19 07:49:20;;;;;;;3.58;0.80;;;;;;;7.19;59.92;99239.06;5030285;28;20041;-71
2021/10/19 07:51:46;;;;;;;1.40;0.88;;;;;;;7.19;59.68;99239.91;5010985;28;20057;-69
2021/10/19 07:54:12;;;;;;;1.05;0.70;;;;;;;7.39;59.30;99239.34;5010575;28;20049;-71
2021/10/19 07:56:38;;;;;;;1.33;0.90;;;;;;;7.41;59.15;99241.88;5009154;28;20052;-68
2021/10/19 07:59:07;;;;;;;1.30;1.00;;;;;;;7.26;58.85;99238.00;5011162;28;20038;-71
2021/10/19 08:01:36;;;;;;;1.92;0.68;;;;;;;7.32;59.15;99244.75;5025262;28;20060;-70
2021/10/19 08:04:02;;;;;;;1.90;1.08;;;;;;;7.34;59.02;99245.53;5009319;28;20041;-72
2021/10/19 08:06:28;;;;;;;1.08;0.80;;;;;;;7.32;58.84;99252.50;5008734;28;20120;-68
2021/10/19 08:08:53;;;;;;;2.75;0.93;;;;;;;7.39;58.43;99248.84;5010446;28;20041;-70
2021/10/19 08:11:19;;;;;;;1.85;0.88;;;;;;;7.49;58.93;99255.44;5025982;28;20050;-72
2021/10/19 08:13:45;;;;;;;2.50;0.90;;;;;;;7.34;58.39;99255.88;5034430;28;20050;-68
2021/10/19 08:16:10;;;;;;;2.53;0.77;;;;;;;7.22;58.47;99257.91;5036856;28;20065;-72
2021/10/19 08:18:38;;;;;;;2.50;0.98;;;;;;;7.14;58.52;99248.69;5034034;28;20032;-74
2021/10/19 08:21:09;;;;;;;5.28;0.80;;;;;;;7.23;58.86;99253.59;5044865;28;20048;-70
2021/10/19 08:23:35;;;;;;;1.33;0.70;;;;;;;7.24;58.67;99260.47;5038185;28;20036;-71
2021/10/19 08:26:01;;;;;;;4.72;1.45;;;;;;;7.20;58.74;99257.13;5039819;28;20041;-68
2021/10/19 08:28:30;;;;;;;2.30;0.70;;;;;;;7.12;58.64;99266.81;5045204;28;20136;-69
2021/10/19 08:30:56;;;;;;;;;;;;;;;7.03;58.58;99261.03;5044513;28;20041;-72
2021/10/19 08:33:22;;;;;;;2.35;0.70;;;;;;;7.03;59.42;99267.06;5032069;28;19964;-69
2021/10/19 08:35:48;;;;;;;1.77;0.68;;;;;;;7.01;59.41;99270.59;5038748;28;20043;-70
2021/10/19 08:38:13;;;;;;;7.40;1.27;;;;;;;6.92;60.93;99274.25;5055321;28;20117;-70
2021/10/19 08:40:43;;;;;;;0.77;0.70;;;;;;;6.75;62.69;99276.44;5041311;28;20045;-68
2021/10/19 08:43:10;;;;;;;5.13;1.80;;;;;;;6.72;63.03;99284.25;5044460;28;20056;-69
2021/10/19 08:45:36;;;;;;;3.28;0.95;;;;;;;6.63;63.81;99287.91;5042874;28;20041;-67
2021/10/19 08:48:02;;;;;;;2.22;1.00;;;;;;;6.57;64.68;99284.63;5032139;28;20034;-70
2021/10/19 08:50:28;;;;;;;3.00;0.85;;;;;;;6.55;64.82;99286.38;5021130;28;20133;-69
2021/10/19 08:52:54;;;;;;;6.07;1.10;;;;;;;6.43;64.73;99261.75;5036265;28;20045;-68
2021/10/19 08:55:23;;;;;;;7.35;1.30;;;;;;;6.73;65.17;99280.78;5040047;28;20049;-70
2021/10/19 08:57:49;;;;;;;1.77;0.90;;;;;;;6.78;64.83;99284.94;5035596;28;20151;-68
2021/10/19 09:00:15;;;;;;;1.70;1.13;;;;;;;6.81;64.69;99282.28;5039629;28;20523;-68
2021/10/19 09:02:46;;;;;;;2.28;1.20;;;;;;;7.01;64.61;99292.13;5036040;28;20535;-68
2021/10/19 09:05:16;;;;;;;8.13;1.40;;;;;;;7.34;63.74;99284.31;5040300;28;20124;-70
2021/10/19 09:08:00;;;;;;;2.58;1.20;;;;;;;8.79;60.54;99279.03;5030468;28;20081;-69
2021/10/19 09:10:28;;;;;;;7.60;0.90;;;;;;;10.63;56.36;99260.81;5027771;28;20049;-66
2021/10/19 09:12:55;;;;;;;4.10;1.00;;;;;;;11.94;53.13;99285.47;5035709;28;20041;-70
2021/10/19 09:15:24;;;;;;;3.53;1.10;;;;;;;12.34;51.76;99292.28;5027490;28;20509;-70
2021/10/19 09:17:50;;;;;;;2.70;1.10;;;;;;;12.69;50.79;99289.66;5040888;28;20052;-68
2021/10/19 09:20:17;;;;;;;3.20;1.05;;;;;;;12.51;50.67;99292.31;5051926;28;20080;-68
2021/10/19 09:23:01;;;;;;;2.22;0.55;;;;;;;11.65;49.74;99295.44;5051837;28;20037;-68
2021/10/19 09:25:38;;;;;;;1.10;0.70;;;;;;;10.71;49.34;99299.50;5033831;28;20041;-70
2021/10/19 09:28:09;;;;;;;1.05;0.52;;;;;;;10.12;50.58;99297.50;5040311;28;20489;-68
2021/10/19 09:30:44;;;;;;;2.85;0.70;;;;;;;9.66;51.88;99297.53;5051449;28;20037;-67
2021/10/19 09:33:18;;;;;;;1.42;0.70;;;;;;;9.46;52.77;99305.22;5044722;28;20041;-68
2021/10/19 09:35:47;;;;;;;1.27;0.60;;;;;;;9.11;52.79;99299.50;5061884;28;20071;-70
2021/10/19 09:38:13;;;;;;;2.05;0.50;;;;;;;8.97;53.29;99304.31;5047826;28;20040;-71
2021/10/19 09:40:44;;;;;;;2.80;0.60;;;;;;;8.81;52.54;99306.56;5051230;28;20045;-69
2021/10/19 09:43:15;;;;;;;1.58;0.60;;;;;;;8.89;52.15;99302.00;5050282;28;20061;-69
2021/10/19 09:45:42;;;;;;;6.05;1.60;;;;;;;9.26;51.87;99309.34;5052250;28;20052;-70
2021/10/19 09:48:12;;;;;;;2.33;0.70;;;;;;;9.89;50.79;99297.50;5029924;28;20405;-70
2021/10/19 09:50:38;;;;;;;5.97;0.90;;;;;;;9.98;50.86;99304.97;5031549;28;20053;-69
2021/10/19 09:53:05;;;;;;;2.78;0.82;;;;;;;10.13;51.34;99312.19;5024611;28;20041;-69
2021/10/19 09:55:32;;;;;;;1.90;0.75;;;;;;;10.03;51.20;99300.47;5046861;28;20079;-69
2021/10/19 09:57:58;;;;;;;2.17;0.98;;;;;;;9.98;51.61;99304.13;5049583;28;20071;-69
2021/10/19 10:00:25;;;;;;;4.63;0.90;;;;;;;9.70;52.29;99302.56;5032190;28;20428;-70
2021/10/19 10:02:51;;;;;;;1.30;0.85;;;;;;;9.33;52.52;99297.84;5049702;28;20056;-70
2021/10/19 10:05:17;;;;;;;1.73;0.85;;;;;;;8.89;53.39;99307.19;5050778;28;20586;-70
2021/10/19 10:07:44;;;;;;;1.20;0.70;;;;;;;8.61;53.87;99311.56;5030589;28;20539;-69
2021/10/19 10:10:13;;;;;;;1.60;0.95;;;;;;;8.44;54.12;99293.97;5048314;28;20462;-72
2021/10/19 10:12:39;;;;;;;3.05;0.80;;;;;;;8.35;54.59;99301.19;5032104;28;20044;-69
2021/10/19 10:15:07;;;;;;;3.72;0.75;;;;;;;8.50;54.15;99309.31;5051106;28;20044;-68
2021/10/19 10:17:32;;;;;;;3.35;1.17;;;;;;;8.87;53.50;99306.38;5028323;28;20048;-70
2021/10/19 10:20:07;;;;;;;0.73;0.50;;;;;;;8.91;51.58;99304.50;5052809;28;20052;-70
2021/10/19 10:22:42;;;;;;;1.10;0.60;;;;;;;8.80;51.28;99304.03;5052043;28;20056;-71
2021/10/19 10:25:10;;;;;;;0.68;0.50;;;;;;;8.20;52.04;99281.78;5050558;28;20099;-70
2021/10/19 10:27:37;;;;;;;0.60;0.60;;;;;;;7.90;53.33;99288.72;5046279;28;20393;-69
2021/10/19 10:30:03;;;;;;;0.90;0.70;;;;;;;7.77;54.76;99310.69;5064098;28;20044;-70
2021/10/19 10:32:37;;;;;;;1.08;0.45;;;;;;;7.57;55.18;99297.47;5048233;28;20143;-68
2021/10/19 10:35:08;;;;;;;0.40;0.40;;;;;;;7.62;54.87;99301.63;5039669;28;20056;-67
2021/10/19 10:37:51;;;;;;;0.40;0.40;;;;;;;8.12;53.69;99294.09;5049647;28;20132;-70
2021/10/19 10:40:35;;;;;;;0.90;0.60;;;;;;;9.05;52.22;99298.88;5050158;28;20049;-68
2021/10/19 10:43:26;;;;;;;1.20;0.75;;;;;;;9.69;51.07;99300.84;5047158;28;20040;-71
2021/10/19 10:46:20;;;;;;;1.38;0.82;;;;;;;9.79;50.74;99299.63;5049913;28;20048;-70
2021/10/19 10:48:46;;;;;;;3.50;0.80;;;;;;;9.43;50.82;99295.78;5030648;28;20136;-69
2021/10/19 10:51:13;;;;;;;0.70;0.60;;;;;;;9.24;51.83;99302.53;5027754;28;20061;-69
2021/10/19 10:53:45;;;;;;;0.77;0.70;;;;;;;8.97;52.52;99306.91;5049491;28;20068;-70
2021/10/19 10:56:12;;;;;;;1.02;0.55;;;;;;;8.56;54.39;99310.03;5031089;28;20041;-69
2021/10/19 10:58:40;;;;;;;0.75;0.70;;;;;;;8.30;55.77;99303.94;5048136;28;20060;-68
2021/10/19 11:01:28;;;;;;;3.97;0.80;;;;;;;8.28;56.71;99317.78;5047510;28;20061;-69
2021/10/19 11:04:14;;;;;;;2.15;0.73;;;;;;;8.22;56.31;99310.19;5034044;28;20037;-68
2021/10/19 11:06:40;;;;;;;2.03;0.70;;;;;;;8.19;56.32;99313.72;5050717;28;20044;-70
2021/10/19 11:09:14;;;;;;;0.85;0.57;;;;;;;8.14;57.06;99323.38;5044373;28;20041;-70
2021/10/19 11:11:42;;;;;;;0.63;0.52;;;;;;;8.17;57.59;99322.44;5055137;28;20072;-69
2021/10/19 11:14:10;;;;;;;3.17;0.70;;;;;;;8.14;57.78;99325.13;5049276;28;20041;-70
2021/10/19 11:16:47;;;;;;;0.70;0.60;;;;;;;8.16;57.88;99319.00;5050722;28;20040;-69
2021/10/19 11:19:22;;;;;;;1.17;0.77;;;;;;;8.13;58.12;99326.00;5046786;28;20269;-69
2021/10/19 11:21:56;;;;;;;0.95;0.80;;;;;;;8.16;57.81;99307.81;5047789;28;20067;-70
2021/10/19 11:24:24;;;;;;;1.10;0.80;;;;;;;8.24;58.19;99308.41;5034335;28;20034;-69
2021/10/19 11:26:50;;;;;;;0.65;0.40;;;;;;;8.22;56.77;99313.63;5033173;28;20094;-70
2021/10/19 11:29:17;;;;;;;0.40;0.40;;;;;;;8.11;56.29;99314.88;5047615;28;20102;-70
2021/10/19 11:31:43;;;;;;;2.10;0.50;;;;;;;8.07;56.30;99320.13;5049133;28;20137;-69
2021/10/19 11:34:09;;;;;;;0.70;0.50;;;;;;;8.02;56.54;99311.66;5040317;28;20129;-69
2021/10/19 11:36:35;;;;;;;2.25;0.68;;;;;;;7.97;56.67;99320.44;5041543;28;20152;-70
2021/10/19 11:39:14;;;;;;;2.00;0.98;;;;;;;7.92;56.93;99323.16;5047035;28;20037;-70
2021/10/19 11:41:47;;;;;;;1.57;1.00;;;;;;;7.77;56.83;99315.00;5047759;28;20102;-70